Main page
METAR-TAF:

METAR-TAF

Airports :

Norrköping Airport

Norrköping, Sweden

latitude: 58-35N, longitude: 016-09E, elevation: 34 m

Current weather observation

The report was made 32 minutes ago, at 04:50 UTC
Wind 3 kt from variable directions
Temperature 22°C
Humidity 65%
Pressure 1014 hPa
Visibility 10 km or more

METAR: ESSP 170450Z AUTO VRB03KT 9999 NCD 22/15 Q1014

Time: 07:22 (05:22 UTC)

Forecast

The report was made 11 hours and 52 minutes ago, at 17:30 UTC
Forecast valid from 16 at 18 UTC to 16 at 20 UTC
Wind 7 kt from the East
Visibility 10 km or more
no clouds below 1500 m and no cumulonimbus

TAF: ESSP 161730Z 1618/1620 10007KT CAVOK

Weather observations and forecasts of more than 4000 airports (METAR and TAF reports).

The available stations are represented by yellow and red dots on the map.

Hover mouse over dot to see the name of the station.

Then click to see weather observations and forecasts.

To change the map : click on the green buttons with a black cross to zoom in, on the green button with a dash to zoom out, or on the green arrows for adjacent maps.


METAR-TAF: